Time;durP1;ratioP1;P1;durP2;ratioP2;P2;SDS_P1;SDS_P2;PMS_P1;PMS_P2;Temp;Humidity;BMP_temperature;BMP_pressure;BME280_temperature;BME280_humidity;BME280_pressure;Samples;Min_cycle;Max_cycle;Signal;HPM_P1;HPM_P2
2022/10/19 00:02:16;;;;;;;2.85;0.80;;;9.20;99.90;;;;;;5028617;28;20391;-73
2022/10/19 00:04:43;;;;;;;4.90;0.80;;;9.20;99.90;;;;;;5025582;28;20029;-71
2022/10/19 00:07:09;;;;;;;5.18;0.98;;;9.20;99.90;;;;;;5012598;28;20405;-72
2022/10/19 00:09:35;;;;;;;5.30;1.10;;;9.20;99.90;;;;;;5033036;28;20067;-73
2022/10/19 00:12:01;;;;;;;2.70;0.70;;;9.30;99.90;;;;;;5031539;28;20041;-72
2022/10/19 00:14:28;;;;;;;5.60;0.70;;;9.20;99.90;;;;;;5025398;28;20045;-73
2022/10/19 00:16:55;;;;;;;4.63;1.00;;;9.20;99.90;;;;;;5031679;28;20041;-72
2022/10/19 00:19:24;;;;;;;3.80;0.80;;;9.20;99.90;;;;;;5030990;28;20033;-73
2022/10/19 00:21:51;;;;;;;4.00;1.05;;;9.20;99.90;;;;;;5013504;28;20032;-72
2022/10/19 00:24:18;;;;;;;4.60;1.10;;;9.10;99.90;;;;;;5030662;28;20377;-72
2022/10/19 00:26:45;;;;;;;2.78;0.80;;;9.10;99.90;;;;;;5029745;28;20045;-71
2022/10/19 00:29:13;;;;;;;4.20;1.20;;;9.10;99.90;;;;;;5031253;28;20040;-72
2022/10/19 00:31:39;;;;;;;9.10;2.28;;;9.10;99.90;;;;;;5033022;28;20052;-73
2022/10/19 00:34:06;;;;;;;7.85;2.03;;;9.10;99.90;;;;;;5009248;28;20462;-72
2022/10/19 00:36:35;;;;;;;5.47;1.98;;;9.10;99.90;;;;;;5031079;28;20036;-71
2022/10/19 00:39:03;;;;;;;5.90;1.38;;;9.10;99.90;;;;;;5034307;28;20033;-73
2022/10/19 00:41:32;;;;;;;3.45;0.88;;;9.10;99.90;;;;;;5024889;28;20053;-72
2022/10/19 00:44:21;;;;;;;3.58;0.93;;;9.10;99.90;;;;;;5026242;28;20042;-71
2022/10/19 00:46:47;;;;;;;4.45;0.80;;;9.10;99.90;;;;;;5021028;28;20044;-71
2022/10/19 00:49:18;;;;;;;2.75;0.70;;;9.00;99.90;;;;;;5031892;28;20029;-72
2022/10/19 00:51:52;;;;;;;4.13;0.93;;;9.00;99.90;;;;;;5011840;28;20060;-71
2022/10/19 00:54:19;;;;;;;1.70;0.55;;;9.00;99.90;;;;;;5028077;28;20052;-72
2022/10/19 00:56:48;;;;;;;3.03;0.80;;;8.90;99.90;;;;;;5028112;28;20033;-72
2022/10/19 00:59:18;;;;;;;2.15;0.57;;;8.90;99.90;;;;;;5030604;28;20373;-72
2022/10/19 01:01:45;;;;;;;2.42;0.50;;;8.90;99.90;;;;;;5029012;28;20041;-72
2022/10/19 01:04:12;;;;;;;1.70;0.60;;;8.90;99.90;;;;;;5024844;28;20045;-71
2022/10/19 01:06:40;;;;;;;2.63;0.70;;;8.80;99.90;;;;;;5028309;28;20037;-72
2022/10/19 01:09:07;;;;;;;1.65;0.60;;;8.80;99.90;;;;;;5032895;28;20550;-72
2022/10/19 01:12:10;;;;;;;1.75;0.50;;;8.80;99.90;;;;;;5030352;28;20034;-72
2022/10/19 01:14:58;;;;;;;1.20;0.60;;;8.80;99.90;;;;;;5025768;28;20049;-71
2022/10/19 01:17:53;;;;;;;1.88;0.30;;;8.70;99.90;;;;;;5028351;28;20404;-71
2022/10/19 01:20:44;;;;;;;1.15;0.40;;;8.70;99.90;;;;;;5030925;28;20040;-72
2022/10/19 01:23:16;;;;;;;1.80;0.40;;;8.70;99.90;;;;;;5026777;28;20041;-71
2022/10/19 01:25:48;;;;;;;1.70;0.40;;;8.60;99.90;;;;;;4990910;28;20025;-72
2022/10/19 01:28:52;;;;;;;1.45;0.50;;;8.60;99.90;;;;;;5033663;28;20030;-71
2022/10/19 01:31:42;;;;;;;1.98;0.82;;;8.50;99.90;;;;;;5028282;28;20040;-72
2022/10/19 01:34:33;;;;;;;1.27;0.30;;;8.50;99.90;;;;;;5002124;28;20057;-72
2022/10/19 01:37:01;;;;;;;0.85;0.30;;;8.50;99.90;;;;;;5029671;28;20029;-71
2022/10/19 01:39:42;;;;;;;1.50;0.30;;;8.40;99.90;;;;;;5029693;28;20034;-72
2022/10/19 01:42:27;;;;;;;2.35;0.40;;;8.40;99.90;;;;;;5028736;28;20037;-72
2022/10/19 01:45:09;;;;;;;2.88;0.30;;;8.40;99.90;;;;;;5021063;28;20723;-72
2022/10/19 01:47:41;;;;;;;1.35;0.30;;;8.40;99.90;;;;;;5027293;28;20049;-73
2022/10/19 01:50:14;;;;;;;1.75;0.30;;;8.30;99.90;;;;;;5031750;28;20032;-73
2022/10/19 01:52:42;;;;;;;1.13;0.30;;;8.30;99.90;;;;;;5026254;28;20076;-72
2022/10/19 01:55:11;;;;;;;2.47;0.30;;;8.20;99.90;;;;;;5019446;28;20034;-72
2022/10/19 01:57:45;;;;;;;1.77;0.32;;;8.20;99.90;;;;;;5029742;28;20037;-72
2022/10/19 02:00:14;;;;;;;1.77;0.30;;;8.20;99.90;;;;;;5031249;28;20032;-73
2022/10/19 02:02:47;;;;;;;0.75;0.22;;;8.20;99.90;;;;;;5031786;28;20034;-73
2022/10/19 02:05:16;;;;;;;1.52;0.20;;;8.20;99.90;;;;;;5026345;28;20028;-72
2022/10/19 02:07:47;;;;;;;1.25;0.20;;;8.20;99.90;;;;;;5011573;28;20052;-72
2022/10/19 02:10:13;;;;;;;2.10;0.20;;;8.20;99.90;;;;;;5029489;28;20029;-72
2022/10/19 02:12:41;;;;;;;1.92;0.20;;;8.20;99.90;;;;;;5026254;28;20068;-73
2022/10/19 02:15:17;;;;;;;1.10;0.28;;;8.20;99.90;;;;;;5024171;28;20408;-72
2022/10/19 02:17:47;;;;;;;0.80;0.20;;;8.20;99.90;;;;;;5032115;28;20354;-72
2022/10/19 02:20:15;;;;;;;1.75;0.22;;;8.10;99.90;;;;;;5033823;28;20037;-72
2022/10/19 02:22:42;;;;;;;2.47;0.20;;;8.10;99.90;;;;;;5011705;28;20032;-73
2022/10/19 02:25:09;;;;;;;1.13;0.20;;;8.10;99.90;;;;;;5025147;28;20517;-72
2022/10/19 02:27:40;;;;;;;0.65;0.20;;;8.10;99.90;;;;;;5015281;28;20037;-73
2022/10/19 02:30:13;;;;;;;1.58;0.28;;;8.10;99.90;;;;;;5027330;28;20750;-73
2022/10/19 02:32:40;;;;;;;0.82;0.20;;;8.10;99.90;;;;;;5035663;28;20061;-73
2022/10/19 02:35:07;;;;;;;0.57;0.20;;;8.10;99.90;;;;;;5023624;28;20037;-72
2022/10/19 02:37:33;;;;;;;2.13;0.20;;;8.10;99.90;;;;;;5016227;28;20055;-73
2022/10/19 02:40:00;;;;;;;1.30;0.20;;;8.10;99.90;;;;;;5014447;28;20046;-72
2022/10/19 02:42:39;;;;;;;0.88;0.30;;;8.00;99.90;;;;;;5026911;28;20038;-73
2022/10/19 02:45:20;;;;;;;0.75;0.20;;;8.10;99.90;;;;;;5020565;28;20045;-72
2022/10/19 02:48:01;;;;;;;1.63;0.73;;;8.00;99.90;;;;;;5028043;28;20040;-72
2022/10/19 02:50:28;;;;;;;2.13;0.10;;;8.00;99.90;;;;;;5029394;28;20045;-73
2022/10/19 02:52:54;;;;;;;0.88;0.10;;;8.00;99.90;;;;;;4999620;28;20034;-72
2022/10/19 02:55:20;;;;;;;1.05;0.20;;;7.90;99.90;;;;;;5021898;28;20033;-73
2022/10/19 02:57:46;;;;;;;1.73;0.20;;;7.90;99.90;;;;;;5028078;28;20037;-72
2022/10/19 03:00:13;;;;;;;1.00;0.30;;;7.90;99.90;;;;;;5031875;28;20044;-73
2022/10/19 03:02:39;;;;;;;1.75;0.20;;;7.90;99.90;;;;;;5025231;28;20037;-72
2022/10/19 03:05:06;;;;;;;2.38;0.20;;;7.80;99.90;;;;;;5022688;28;20499;-72
2022/10/19 03:07:32;;;;;;;2.72;0.40;;;7.80;99.90;;;;;;5032357;28;20033;-73
2022/10/19 03:09:58;;;;;;;1.05;0.20;;;7.80;99.90;;;;;;5030196;28;20047;-73
2022/10/19 03:12:25;;;;;;;1.30;0.30;;;7.80;99.90;;;;;;5030121;28;20056;-73
2022/10/19 03:14:51;;;;;;;0.55;0.20;;;7.80;99.90;;;;;;5003395;28;20052;-72
2022/10/19 03:17:17;;;;;;;3.15;0.20;;;7.80;99.90;;;;;;5009935;28;20032;-72
2022/10/19 03:19:44;;;;;;;3.05;0.20;;;7.70;99.90;;;;;;5005453;28;20045;-72
2022/10/19 03:22:13;;;;;;;0.73;0.20;;;7.70;99.90;;;;;;5029334;28;20064;-72
2022/10/19 03:24:40;;;;;;;1.45;0.20;;;7.70;99.90;;;;;;5010617;28;20106;-72
2022/10/19 03:27:06;;;;;;;4.25;0.88;;;7.70;99.90;;;;;;5031849;28;20048;-72
2022/10/19 03:29:32;;;;;;;1.30;0.22;;;7.70;99.90;;;;;;5031626;28;20055;-72
2022/10/19 03:31:58;;;;;;;3.28;0.85;;;7.70;99.90;;;;;;5030062;28;20049;-71
2022/10/19 03:34:25;;;;;;;2.45;0.30;;;7.70;99.90;;;;;;4993083;28;20038;-71
2022/10/19 03:36:51;;;;;;;0.70;0.20;;;7.70;99.90;;;;;;5010536;28;20048;-73
2022/10/19 03:39:17;;;;;;;2.60;0.30;;;7.80;99.90;;;;;;5033986;28;20499;-72
2022/10/19 03:41:44;;;;;;;1.73;0.32;;;7.70;99.90;;;;;;5029489;28;20033;-72
2022/10/19 03:44:11;;;;;;;1.42;0.32;;;7.80;99.90;;;;;;5025513;28;20028;-73
2022/10/19 03:46:38;;;;;;;3.50;0.82;;;7.80;99.90;;;;;;5028206;28;20048;-72
2022/10/19 03:49:05;;;;;;;2.67;0.32;;;7.80;99.90;;;;;;5032135;28;20400;-72
2022/10/19 03:51:32;;;;;;;3.67;0.50;;;7.80;99.90;;;;;;5031723;28;20037;-71
2022/10/19 03:54:02;;;;;;;2.70;0.30;;;7.90;99.90;;;;;;5028244;28;20404;-72
2022/10/19 03:56:29;;;;;;;1.33;0.30;;;7.90;99.90;;;;;;5010417;28;20037;-73
2022/10/19 03:58:57;;;;;;;0.98;0.30;;;7.90;99.90;;;;;;5034567;28;20199;-72
2022/10/19 04:01:26;;;;;;;1.30;0.22;;;7.90;99.90;;;;;;5029117;28;20037;-72
2022/10/19 04:03:54;;;;;;;1.35;0.20;;;7.90;99.90;;;;;;5027289;28;20037;-72
2022/10/19 04:06:25;;;;;;;1.20;0.20;;;7.90;99.90;;;;;;5027280;28;20037;-73
2022/10/19 04:08:52;;;;;;;1.88;0.20;;;7.90;99.90;;;;;;5016704;28;20041;-73
2022/10/19 04:11:21;;;;;;;1.25;0.20;;;7.90;99.90;;;;;;5033347;28;20610;-72
2022/10/19 04:13:49;;;;;;;3.13;0.30;;;7.90;99.90;;;;;;5013009;28;20041;-72
2022/10/19 04:16:15;;;;;;;2.60;0.20;;;7.90;99.90;;;;;;5024984;28;20064;-73
2022/10/19 04:18:42;;;;;;;0.63;0.20;;;7.90;99.90;;;;;;5032221;28;20033;-73
2022/10/19 04:21:27;;;;;;;1.88;0.30;;;7.90;99.90;;;;;;5035355;28;20040;-72
2022/10/19 04:23:58;;;;;;;1.98;0.20;;;7.90;99.90;;;;;;5027110;28;20029;-72
2022/10/19 04:26:24;;;;;;;2.10;0.30;;;7.90;99.90;;;;;;5026814;28;20030;-73
2022/10/19 04:28:50;;;;;;;2.38;0.20;;;7.90;99.90;;;;;;5017847;28;20036;-72
2022/10/19 04:31:17;;;;;;;1.80;0.30;;;7.90;99.90;;;;;;5000575;28;20038;-72
2022/10/19 04:33:43;;;;;;;1.50;0.40;;;7.90;99.90;;;;;;5029730;28;20040;-71
2022/10/19 04:36:11;;;;;;;4.60;0.40;;;7.80;99.90;;;;;;5027203;28;20392;-72
2022/10/19 04:38:38;;;;;;;1.80;0.35;;;7.80;99.90;;;;;;5031275;28;20025;-72
2022/10/19 04:41:10;;;;;;;3.28;0.20;;;7.80;99.90;;;;;;5012821;28;20499;-72
2022/10/19 04:43:36;;;;;;;1.25;0.20;;;7.80;99.90;;;;;;5031605;28;20388;-73
2022/10/19 04:46:11;;;;;;;1.38;0.30;;;7.70;99.90;;;;;;5026489;28;20029;-72
2022/10/19 04:48:39;;;;;;;0.85;0.20;;;7.70;99.90;;;;;;5000119;28;20037;-73
2022/10/19 04:51:06;;;;;;;3.42;0.30;;;7.60;99.90;;;;;;5030466;28;20507;-73
2022/10/19 04:53:33;;;;;;;2.65;0.40;;;7.60;99.90;;;;;;5027540;28;20804;-72
2022/10/19 04:56:03;;;;;;;0.80;0.20;;;7.60;99.90;;;;;;5028710;28;20057;-72
2022/10/19 04:58:30;;;;;;;0.80;0.22;;;7.50;99.90;;;;;;4998090;28;20041;-72
2022/10/19 05:00:56;;;;;;;1.75;0.40;;;7.50;99.90;;;;;;5032868;28;20029;-72
2022/10/19 05:03:22;;;;;;;2.35;0.30;;;7.50;99.90;;;;;;5034982;28;20029;-72
2022/10/19 05:05:49;;;;;;;1.88;0.30;;;7.50;99.90;;;;;;5024809;28;20033;-73
2022/10/19 05:08:15;;;;;;;2.90;0.40;;;7.40;99.90;;;;;;5036674;28;20032;-72
2022/10/19 05:10:41;;;;;;;0.85;0.40;;;7.40;99.90;;;;;;5031555;28;20040;-72
2022/10/19 05:13:08;;;;;;;2.75;0.40;;;7.30;99.90;;;;;;5027974;28;20412;-73
2022/10/19 05:15:34;;;;;;;2.72;0.30;;;7.30;99.90;;;;;;5023195;28;20168;-73
2022/10/19 05:18:00;;;;;;;0.80;0.40;;;7.30;99.90;;;;;;5029041;28;20404;-73
2022/10/19 05:20:27;;;;;;;1.73;0.40;;;7.20;99.90;;;;;;5025101;28;20389;-72
2022/10/19 05:22:53;;;;;;;3.92;0.40;;;7.20;99.90;;;;;;5012255;28;20041;-72
2022/10/19 05:25:19;;;;;;;1.98;0.40;;;7.20;99.90;;;;;;5026658;28;20052;-71
2022/10/19 05:27:50;;;;;;;2.00;0.50;;;7.20;99.90;;;;;;5031203;28;20396;-74
2022/10/19 05:30:16;;;;;;;2.35;0.40;;;7.10;99.90;;;;;;5014362;28;20029;-72
2022/10/19 05:32:43;;;;;;;2.05;0.40;;;7.10;99.90;;;;;;5030739;28;20038;-72
2022/10/19 05:35:09;;;;;;;0.95;0.40;;;7.10;99.90;;;;;;5006882;28;20049;-72
2022/10/19 05:37:35;;;;;;;3.58;0.43;;;7.00;99.90;;;;;;5033301;28;20029;-72
2022/10/19 05:40:01;;;;;;;1.33;0.40;;;7.10;99.90;;;;;;5032424;28;20060;-73
2022/10/19 05:42:28;;;;;;;2.92;0.55;;;7.10;99.90;;;;;;5016656;28;20156;-71
2022/10/19 05:44:54;;;;;;;5.90;0.50;;;7.10;99.90;;;;;;5023950;28;20409;-71
2022/10/19 05:47:20;;;;;;;2.50;0.50;;;7.10;99.90;;;;;;5032569;28;20060;-72
2022/10/19 05:49:46;;;;;;;1.73;0.47;;;7.00;99.90;;;;;;5034739;28;20431;-71
2022/10/19 05:52:14;;;;;;;3.28;0.40;;;7.00;99.90;;;;;;5028371;28;20060;-72
2022/10/19 05:54:40;;;;;;;3.05;1.00;;;7.00;99.90;;;;;;5021715;28;20060;-71
2022/10/19 05:57:06;;;;;;;3.67;0.55;;;6.90;99.90;;;;;;5031587;28;20025;-72
2022/10/19 05:59:32;;;;;;;5.88;0.75;;;6.90;99.90;;;;;;5030699;28;20048;-73
2022/10/19 06:01:59;;;;;;;2.92;0.52;;;6.90;99.90;;;;;;5031382;28;20029;-72
2022/10/19 06:04:25;;;;;;;2.20;0.40;;;6.90;99.90;;;;;;5024829;28;20056;-72
2022/10/19 06:06:51;;;;;;;3.70;1.70;;;6.90;99.90;;;;;;5021849;28;20025;-72
2022/10/19 06:09:18;;;;;;;8.35;3.05;;;6.90;99.90;;;;;;5026765;28;20033;-72
2022/10/19 06:11:44;;;;;;;8.50;2.17;;;6.90;99.90;;;;;;5024776;28;20029;-73
2022/10/19 06:14:13;;;;;;;4.57;1.83;;;6.90;99.90;;;;;;5016755;28;20046;-73
2022/10/19 06:16:39;;;;;;;3.97;1.02;;;6.90;99.90;;;;;;5024779;28;20033;-74
2022/10/19 06:19:06;;;;;;;6.18;1.15;;;7.00;99.90;;;;;;5018579;28;20435;-72
2022/10/19 06:21:33;;;;;;;3.20;0.95;;;7.00;99.90;;;;;;5021722;28;20045;-74
2022/10/19 06:24:02;;;;;;;3.70;1.00;;;7.00;99.90;;;;;;5024566;28;20044;-71
2022/10/19 06:26:31;;;;;;;4.28;1.13;;;7.00;99.90;;;;;;5027056;28;20032;-76
2022/10/19 06:28:59;;;;;;;4.43;1.27;;;7.10;99.90;;;;;;5027115;28;20369;-73
2022/10/19 06:31:26;;;;;;;4.18;1.00;;;7.10;99.90;;;;;;5021588;28;20614;-73
2022/10/19 06:33:53;;;;;;;3.47;0.60;;;7.10;99.90;;;;;;4994184;28;20618;-72
2022/10/19 06:36:21;;;;;;;4.93;0.70;;;7.20;99.90;;;;;;5000458;28;20409;-72
2022/10/19 06:38:48;;;;;;;2.47;0.60;;;7.30;99.90;;;;;;5024623;28;20029;-73
2022/10/19 06:41:14;;;;;;;3.75;0.50;;;7.30;99.90;;;;;;5031899;28;20040;-72
2022/10/19 06:43:42;;;;;;;1.98;0.52;;;7.40;99.90;;;;;;5028252;28;20504;-72
2022/10/19 06:46:11;;;;;;;2.20;0.70;;;7.40;99.90;;;;;;5019344;28;20132;-72
2022/10/19 06:48:38;;;;;;;8.30;1.23;;;7.50;99.90;;;;;;5023633;28;20488;-73
2022/10/19 06:51:08;;;;;;;4.88;1.00;;;7.50;99.90;;;;;;5026971;28;20036;-72
2022/10/19 06:53:35;;;;;;;5.82;1.00;;;7.60;99.90;;;;;;5025212;28;20030;-71
2022/10/19 06:56:04;;;;;;;5.50;1.77;;;7.70;99.90;;;;;;5026222;28;20040;-72
2022/10/19 06:58:35;;;;;;;3.85;1.33;;;7.80;99.90;;;;;;5033335;28;20029;-72
2022/10/19 07:01:02;;;;;;;3.22;1.05;;;7.90;99.90;;;;;;5032857;28;20032;-72
2022/10/19 07:03:29;;;;;;;8.18;1.60;;;8.00;99.90;;;;;;5029204;28;20033;-72
2022/10/19 07:06:00;;;;;;;8.48;1.10;;;8.10;99.90;;;;;;5026341;28;20025;-71
2022/10/19 07:08:28;;;;;;;4.70;0.80;;;8.20;99.90;;;;;;5036056;28;20425;-72
2022/10/19 07:10:57;;;;;;;5.00;1.17;;;8.30;99.90;;;;;;5029032;28;20033;-71
2022/10/19 07:13:24;;;;;;;3.92;1.35;;;8.30;99.90;;;;;;5028622;28;20041;-73
2022/10/19 07:15:56;;;;;;;4.60;1.13;;;8.40;99.90;;;;;;5029622;28;20053;-70
2022/10/19 07:18:22;;;;;;;6.13;1.80;;;8.50;99.90;;;;;;5030558;28;20364;-73
2022/10/19 07:20:56;;;;;;;6.38;1.35;;;8.60;99.90;;;;;;5044503;28;20715;-71
2022/10/19 07:23:24;;;;;;;6.82;1.77;;;8.70;99.90;;;;;;5001556;28;20064;-71
2022/10/19 07:25:52;;;;;;;5.90;1.38;;;8.80;99.90;;;;;;5023688;28;20050;-72
2022/10/19 07:28:20;;;;;;;7.82;2.55;;;8.90;99.90;;;;;;5027745;28;20660;-72
2022/10/19 07:30:46;;;;;;;4.70;1.02;;;9.00;99.90;;;;;;5029867;28;20028;-72
2022/10/19 07:33:12;;;;;;;5.80;1.10;;;9.20;99.90;;;;;;5026011;28;20068;-71
2022/10/19 07:35:39;;;;;;;5.13;0.95;;;9.20;99.90;;;;;;5021704;28;20033;-72
2022/10/19 07:38:05;;;;;;;8.77;1.50;;;9.40;99.90;;;;;;5020314;28;20029;-72
2022/10/19 07:40:31;;;;;;;3.88;1.20;;;9.50;99.90;;;;;;5024873;28;20044;-72
2022/10/19 07:42:57;;;;;;;5.55;1.63;;;9.50;99.90;;;;;;5026925;28;20044;-72
2022/10/19 07:45:24;;;;;;;3.75;1.40;;;9.60;99.90;;;;;;5035368;28;20041;-74
2022/10/19 07:47:50;;;;;;;7.30;1.90;;;9.70;99.90;;;;;;5011654;28;20034;-74
2022/10/19 07:50:16;;;;;;;4.05;1.50;;;9.80;99.90;;;;;;5024413;28;20029;-74
2022/10/19 07:52:42;;;;;;;9.10;1.40;;;9.80;99.90;;;;;;5020466;28;20048;-73
2022/10/19 07:55:09;;;;;;;3.60;1.20;;;9.90;99.90;;;;;;5002742;28;20081;-73
2022/10/19 07:57:35;;;;;;;7.97;1.60;;;10.00;99.90;;;;;;5026669;28;20033;-72
2022/10/19 08:00:02;;;;;;;3.67;1.05;;;10.00;99.90;;;;;;5020328;28;20037;-73
2022/10/19 08:02:38;;;;;;;4.53;1.00;;;10.10;99.90;;;;;;5022787;28;20033;-73
2022/10/19 08:05:05;;;;;;;5.95;0.70;;;10.10;99.90;;;;;;5013224;28;20030;-71
2022/10/19 08:07:34;;;;;;;6.30;2.78;;;10.20;99.90;;;;;;5025895;28;20675;-73
2022/10/19 08:10:00;;;;;;;9.20;2.85;;;10.30;99.90;;;;;;5027331;28;20025;-72
2022/10/19 08:12:27;;;;;;;8.02;2.03;;;10.40;99.90;;;;;;5021387;28;20034;-73
2022/10/19 08:14:53;;;;;;;8.95;1.50;;;10.40;99.90;;;;;;5032606;28;20113;-74
2022/10/19 08:17:19;;;;;;;8.07;1.77;;;10.50;99.90;;;;;;5019239;28;20060;-72
2022/10/19 08:19:46;;;;;;;9.13;1.35;;;10.50;99.90;;;;;;5009843;28;20048;-75
2022/10/19 08:22:12;;;;;;;4.57;1.10;;;10.60;99.90;;;;;;5043485;28;20032;-74
2022/10/19 08:24:38;;;;;;;6.43;1.70;;;10.60;99.90;;;;;;5005608;28;20037;-74
2022/10/19 08:27:05;;;;;;;8.30;1.63;;;10.60;99.90;;;;;;5025670;28;20029;-74
2022/10/19 08:29:31;;;;;;;6.43;2.15;;;10.70;99.90;;;;;;5023380;28;20026;-74
2022/10/19 08:31:58;;;;;;;4.13;0.80;;;10.70;99.90;;;;;;5020871;28;20029;-73
2022/10/19 08:34:25;;;;;;;6.20;1.50;;;10.80;99.90;;;;;;5017686;28;20048;-74
2022/10/19 08:36:51;;;;;;;2.40;0.80;;;10.90;99.90;;;;;;5019796;28;20040;-74
2022/10/19 08:39:17;;;;;;;6.78;1.27;;;10.90;99.90;;;;;;5019423;28;20036;-75
2022/10/19 08:42:18;;;;;;;8.15;0.90;;;11.00;99.90;;;;;;5021263;28;20041;-71
2022/10/19 08:44:44;;;;;;;6.55;1.30;;;11.10;99.90;;;;;;5019151;28;20040;-75
2022/10/19 08:47:37;;;;;;;3.75;1.10;;;11.10;99.90;;;;;;5010072;28;20025;-76
2022/10/19 08:50:18;;;;;;;2.15;0.70;;;11.20;99.90;;;;;;5026136;28;20037;-72
2022/10/19 08:52:52;;;;;;;5.78;1.17;;;11.20;99.90;;;;;;5028449;28;20030;-75
2022/10/19 08:55:29;;;;;;;3.78;0.95;;;11.30;99.90;;;;;;5035627;28;20048;-73
2022/10/19 08:58:25;;;;;;;5.15;1.20;;;11.40;99.90;;;;;;5026394;28;20041;-75
2022/10/19 09:00:59;;;;;;;3.80;0.73;;;11.40;99.90;;;;;;5023913;28;20034;-74
2022/10/19 09:03:40;;;;;;;4.97;0.90;;;11.50;99.90;;;;;;5024703;28;20033;-75
2022/10/19 09:06:15;;;;;;;4.78;0.93;;;11.50;99.90;;;;;;5019125;28;20036;-73
2022/10/19 09:08:41;;;;;;;2.45;0.70;;;11.60;99.90;;;;;;5023065;28;20022;-74
2022/10/19 09:11:10;;;;;;;6.45;0.80;;;11.60;99.90;;;;;;5024327;28;20222;-72
2022/10/19 09:13:43;;;;;;;2.53;0.80;;;11.70;99.90;;;;;;5024231;28;20041;-73
2022/10/19 09:16:13;;;;;;;;;;;11.70;99.90;;;;;;5004404;28;20054;-72
2022/10/19 09:18:41;;;;;;;6.65;1.00;;;11.70;99.90;;;;;;5010539;28;19913;-72
2022/10/19 09:21:20;;;;;;;2.78;0.82;;;11.80;99.90;;;;;;5026335;28;20036;-72
2022/10/19 09:24:06;;;;;;;2.55;0.80;;;11.90;99.90;;;;;;5028705;28;20037;-72
2022/10/19 09:26:38;;;;;;;7.78;1.27;;;11.90;99.90;;;;;;5014619;28;20048;-72
2022/10/19 09:29:26;;;;;;;72.05;42.35;;;12.00;99.90;;;;;;5008526;28;20131;-73
2022/10/19 09:31:55;;;;;;;6.50;1.58;;;12.10;99.90;;;;;;5029936;28;20029;-73
2022/10/19 09:34:31;;;;;;;8.20;1.40;;;12.20;99.90;;;;;;5027357;28;20053;-72
2022/10/19 09:36:58;;;;;;;10.48;1.10;;;12.30;99.90;;;;;;5026083;28;20037;-73
2022/10/19 09:39:27;;;;;;;3.83;0.70;;;12.40;99.90;;;;;;5029642;28;20360;-73
2022/10/19 09:42:20;;;;;;;4.00;0.93;;;12.40;99.90;;;;;;5010483;28;20026;-73
2022/10/19 09:44:49;;;;;;;6.20;0.77;;;12.50;99.90;;;;;;5018769;28;20042;-73
2022/10/19 09:47:39;;;;;;;4.72;0.70;;;12.60;99.90;;;;;;5031245;28;20029;-73
2022/10/19 09:50:22;;;;;;;4.57;0.90;;;12.80;99.90;;;;;;5025772;28;20037;-72
2022/10/19 09:53:02;;;;;;;4.07;0.63;;;13.00;99.90;;;;;;5023917;28;20026;-73
2022/10/19 09:55:43;;;;;;;4.55;0.70;;;13.30;99.90;;;;;;5024203;28;20033;-73
2022/10/19 09:58:09;;;;;;;4.18;0.65;;;13.60;99.90;;;;;;5023765;28;20067;-73
2022/10/19 10:00:41;;;;;;;3.97;0.60;;;14.00;99.90;;;;;;5028902;28;20033;-74
2022/10/19 10:03:20;;;;;;;4.43;0.57;;;14.20;99.90;;;;;;5027634;28;20038;-72
2022/10/19 10:05:47;;;;;;;6.18;0.70;;;14.40;99.90;;;;;;5023158;28;20063;-73
2022/10/19 10:08:16;;;;;;;5.93;0.88;;;14.60;99.90;;;;;;5022531;28;20425;-73
2022/10/19 10:10:57;;;;;;;5.35;0.40;;;14.80;99.90;;;;;;5023337;28;20056;-73
2022/10/19 10:13:26;;;;;;;8.50;0.80;;;14.90;99.90;;;;;;5024888;28;20037;-73
2022/10/19 10:16:02;;;;;;;2.92;0.50;;;15.10;99.90;;;;;;5018335;28;20049;-72
2022/10/19 10:18:29;;;;;;;6.80;0.75;;;15.20;99.90;;;;;;5021514;28;20033;-73
2022/10/19 10:21:00;;;;;;;4.47;0.63;;;15.20;99.90;;;;;;5021428;28;20362;-74
2022/10/19 10:23:30;;;;;;;2.67;0.50;;;15.20;99.90;;;;;;5022393;28;20496;-73
2022/10/19 10:25:59;;;;;;;4.82;0.65;;;15.30;99.90;;;;;;5024017;28;20400;-73
2022/10/19 10:28:28;;;;;;;2.72;0.40;;;15.50;99.90;;;;;;5025617;28;20037;-73
2022/10/19 10:31:06;;;;;;;4.20;0.50;;;15.70;99.90;;;;;;5028533;28;20052;-72
2022/10/19 10:33:36;;;;;;;5.10;0.60;;;16.00;99.90;;;;;;5031205;28;20029;-74
2022/10/19 10:36:09;;;;;;;4.90;0.63;;;16.10;99.90;;;;;;5021441;28;20041;-73
2022/10/19 10:38:45;;;;;;;5.50;0.60;;;16.10;99.90;;;;;;4993204;28;20095;-74
2022/10/19 10:41:16;;;;;;;6.10;1.15;;;16.10;99.90;;;;;;5026695;28;20040;-73
2022/10/19 10:44:05;;;;;;;3.20;0.65;;;16.10;99.90;;;;;;5020907;28;20028;-72
2022/10/19 10:46:48;;;;;;;2.92;0.50;;;15.90;99.90;;;;;;5018483;28;20037;-73
2022/10/19 10:49:36;;;;;;;3.67;0.50;;;15.80;99.90;;;;;;5021812;28;20060;-72
2022/10/19 10:52:11;;;;;;;9.68;5.47;;;15.90;99.90;;;;;;5027354;28;20042;-74
2022/10/19 10:54:37;;;;;;;4.35;1.00;;;16.10;99.90;;;;;;5016827;28;20042;-71
2022/10/19 10:57:11;;;;;;;4.07;0.40;;;16.20;99.90;;;;;;5022530;28;20048;-72
2022/10/19 11:00:01;;;;;;;2.67;0.50;;;16.00;99.90;;;;;;5020524;28;20404;-72
2022/10/19 11:02:34;;;;;;;2.08;0.40;;;15.70;99.90;;;;;;5027050;28;20048;-72
2022/10/19 11:05:03;;;;;;;3.00;0.52;;;15.50;99.90;;;;;;5022160;28;20551;-72
2022/10/19 11:07:32;;;;;;;4.90;0.40;;;15.30;99.90;;;;;;5039960;28;20507;-72
2022/10/19 11:10:08;;;;;;;5.32;0.93;;;15.10;99.90;;;;;;5028704;28;20396;-72
2022/10/19 11:13:00;;;;;;;4.15;0.43;;;14.90;99.90;;;;;;5030608;28;20048;-71
2022/10/19 11:15:53;;;;;;;2.63;0.40;;;14.70;99.90;;;;;;5020986;28;20068;-72
2022/10/19 11:18:31;;;;;;;4.10;0.47;;;14.60;99.90;;;;;;5027110;28;20041;-71
2022/10/19 11:21:01;;;;;;;7.60;0.57;;;14.60;99.90;;;;;;5025742;28;20025;-72
2022/10/19 11:23:59;;;;;;;5.03;0.40;;;14.60;99.90;;;;;;5025096;28;20412;-71
2022/10/19 11:27:03;;;;;;;3.72;0.50;;;14.60;99.90;;;;;;5024262;28;20033;-72
2022/10/19 11:29:36;;;;;;;4.45;1.30;;;14.60;99.90;;;;;;5020950;28;20041;-71
2022/10/19 11:32:07;;;;;;;7.80;1.42;;;14.50;99.90;;;;;;5024933;28;20025;-71
2022/10/19 11:35:13;;;;;;;7.85;1.80;;;14.50;99.90;;;;;;5019772;28;20416;-71
2022/10/19 11:37:52;;;;;;;2.67;0.50;;;14.50;99.90;;;;;;5022103;28;20053;-72
2022/10/19 11:40:24;;;;;;;3.47;0.88;;;14.60;99.90;;;;;;5021970;28;20539;-72
2022/10/19 11:43:03;;;;;;;4.10;1.10;;;14.70;99.90;;;;;;5008364;28;20043;-71
2022/10/19 11:45:50;;;;;;;6.63;0.50;;;14.80;99.90;;;;;;5021368;28;20018;-73
2022/10/19 11:48:35;;;;;;;5.43;0.60;;;15.00;99.90;;;;;;5030771;28;20469;-73
2022/10/19 11:51:19;;;;;;;2.72;0.30;;;15.40;99.90;;;;;;5033732;28;20469;-73
2022/10/19 11:54:07;;;;;;;5.53;0.47;;;16.00;99.90;;;;;;5032196;28;20037;-72
2022/10/19 11:56:48;;;;;;;3.47;0.40;;;16.70;99.90;;;;;;5025860;28;20037;-72
2022/10/19 11:59:38;;;;;;;6.10;0.60;;;17.40;99.90;;;;;;5029745;28;20400;-73
2022/10/19 12:02:40;;;;;;;1.83;0.40;;;18.10;99.90;;;;;;5028514;28;20040;-73
2022/10/19 12:05:20;;;;;;;3.00;0.30;;;18.80;99.90;;;;;;5012091;28;20484;-73
2022/10/19 12:08:03;;;;;;;2.03;0.50;;;19.40;99.90;;;;;;5022112;28;20484;-72
2022/10/19 12:10:41;;;;;;;3.58;0.45;;;19.70;99.90;;;;;;5026384;28;20030;-73
2022/10/19 12:13:13;;;;;;;4.13;0.38;;;20.00;99.90;;;;;;5037376;28;20512;-73
2022/10/19 12:15:51;;;;;;;2.97;0.30;;;20.10;99.90;;;;;;5016332;28;20049;-73
2022/10/19 12:18:42;;;;;;;1.95;0.20;;;20.50;99.90;;;;;;5028299;28;20034;-73
2022/10/19 12:21:28;;;;;;;2.95;0.35;;;20.90;99.80;;;;;;5037905;28;20033;-72
2022/10/19 12:23:57;;;;;;;3.58;0.55;;;21.60;99.30;;;;;;5029098;28;20041;-73
2022/10/19 12:26:26;;;;;;;3.13;0.40;;;22.20;98.10;;;;;;5025177;28;20039;-74
2022/10/19 12:28:56;;;;;;;1.98;0.32;;;22.60;96.20;;;;;;5029300;28;20017;-72
2022/10/19 12:31:25;;;;;;;2.38;0.50;;;23.00;94.70;;;;;;5036183;28;20037;-71
2022/10/19 12:34:23;;;;;;;2.17;0.35;;;23.10;93.00;;;;;;5029444;28;20037;-70
2022/10/19 12:37:01;;;;;;;1.98;0.30;;;23.10;91.70;;;;;;5012488;28;20053;-70
2022/10/19 12:39:35;;;;;;;15.80;10.45;;;22.10;92.00;;;;;;5026793;28;20033;-71
2022/10/19 12:42:09;;;;;;;5.68;1.85;;;20.90;92.50;;;;;;5031707;28;20040;-70
2022/10/19 12:45:15;;;;;;;3.30;0.50;;;19.70;93.40;;;;;;5024074;28;20029;-69
2022/10/19 12:48:07;;;;;;;2.47;0.40;;;18.60;94.70;;;;;;5010706;28;20056;-71
2022/10/19 12:50:50;;;;;;;3.95;0.40;;;17.70;96.00;;;;;;5032129;28;20041;-71
2022/10/19 12:53:22;;;;;;;;;;;17.10;97.10;;;;;;5033261;28;20317;-71
2022/10/19 12:56:02;;;;;;;4.57;0.50;;;16.70;97.80;;;;;;5024180;28;19917;-70
2022/10/19 12:58:35;;;;;;;6.32;0.55;;;16.30;98.60;;;;;;5028089;28;20041;-71
2022/10/19 13:01:04;;;;;;;2.55;0.32;;;16.00;99.10;;;;;;5029262;28;20038;-71
2022/10/19 13:03:40;;;;;;;3.88;0.50;;;15.70;99.50;;;;;;5036326;28;20034;-71
2022/10/19 13:06:32;;;;;;;1.75;0.52;;;15.50;99.90;;;;;;5024344;28;20053;-71
2022/10/19 13:09:01;;;;;;;;;;;15.30;99.90;;;;;;5029800;28;20044;-70
2022/10/19 13:11:27;;;;;;;3.03;0.40;;;15.20;99.90;;;;;;5032971;28;19920;-70
2022/10/19 13:14:03;;;;;;;1.63;0.20;;;15.00;99.90;;;;;;5027916;28;20049;-71
2022/10/19 13:16:32;;;;;;;4.90;0.35;;;14.90;99.90;;;;;;5028031;28;20037;-71
2022/10/19 13:18:58;;;;;;;2.03;0.30;;;14.80;99.90;;;;;;5012511;28;20316;-70